sensor_id;sensor_type;location;lat;lon;timestamp;P1;durP1;ratioP1;P2;durP2;ratioP2
15256;SDS011;7731;50.720;6.912;2023-04-03T00:01:03;6.23;;;3.17;;
15256;SDS011;7731;50.720;6.912;2023-04-03T00:03:34;12.20;;;3.67;;
15256;SDS011;7731;50.720;6.912;2023-04-03T00:06:08;7.97;;;3.10;;
15256;SDS011;7731;50.720;6.912;2023-04-03T00:08:40;11.87;;;3.90;;
15256;SDS011;7731;50.720;6.912;2023-04-03T00:11:11;5.97;;;2.70;;
15256;SDS011;7731;50.720;6.912;2023-04-03T00:13:41;6.37;;;2.63;;
15256;SDS011;7731;50.720;6.912;2023-04-03T00:16:12;3.57;;;2.27;;
15256;SDS011;7731;50.720;6.912;2023-04-03T00:18:43;5.03;;;2.40;;
15256;SDS011;7731;50.720;6.912;2023-04-03T00:21:16;3.93;;;1.90;;
15256;SDS011;7731;50.720;6.912;2023-04-03T00:23:46;5.10;;;2.10;;
15256;SDS011;7731;50.720;6.912;2023-04-03T00:26:17;4.40;;;2.37;;
15256;SDS011;7731;50.720;6.912;2023-04-03T00:28:50;4.93;;;2.10;;
15256;SDS011;7731;50.720;6.912;2023-04-03T00:31:20;8.67;;;2.40;;
15256;SDS011;7731;50.720;6.912;2023-04-03T00:33:51;5.93;;;2.50;;
15256;SDS011;7731;50.720;6.912;2023-04-03T00:36:24;3.03;;;1.90;;
15256;SDS011;7731;50.720;6.912;2023-04-03T00:38:54;3.57;;;1.97;;
15256;SDS011;7731;50.720;6.912;2023-04-03T00:41:25;2.50;;;1.80;;
15256;SDS011;7731;50.720;6.912;2023-04-03T00:43:55;3.63;;;2.10;;
15256;SDS011;7731;50.720;6.912;2023-04-03T00:46:28;5.17;;;2.07;;
15256;SDS011;7731;50.720;6.912;2023-04-03T00:48:58;3.10;;;2.03;;
15256;SDS011;7731;50.720;6.912;2023-04-03T00:51:31;2.63;;;2.03;;
15256;SDS011;7731;50.720;6.912;2023-04-03T00:54:02;2.97;;;2.40;;
15256;SDS011;7731;50.720;6.912;2023-04-03T00:56:37;2.40;;;1.97;;
15256;SDS011;7731;50.720;6.912;2023-04-03T00:59:10;6.17;;;2.13;;
15256;SDS011;7731;50.720;6.912;2023-04-03T01:01:47;2.83;;;2.13;;
15256;SDS011;7731;50.720;6.912;2023-04-03T01:04:26;3.30;;;2.27;;
15256;SDS011;7731;50.720;6.912;2023-04-03T01:07:02;4.57;;;2.53;;
15256;SDS011;7731;50.720;6.912;2023-04-03T01:09:39;4.27;;;2.20;;
15256;SDS011;7731;50.720;6.912;2023-04-03T01:12:15;3.43;;;2.33;;
15256;SDS011;7731;50.720;6.912;2023-04-03T01:14:49;4.77;;;2.07;;
15256;SDS011;7731;50.720;6.912;2023-04-03T01:17:24;2.67;;;2.10;;
15256;SDS011;7731;50.720;6.912;2023-04-03T01:23:33;3.30;;;2.20;;
15256;SDS011;7731;50.720;6.912;2023-04-03T01:26:45;3.67;;;2.00;;
15256;SDS011;7731;50.720;6.912;2023-04-03T01:29:15;3.13;;;2.00;;
15256;SDS011;7731;50.720;6.912;2023-04-03T01:31:51;3.10;;;2.03;;
15256;SDS011;7731;50.720;6.912;2023-04-03T01:34:23;3.63;;;2.00;;
15256;SDS011;7731;50.720;6.912;2023-04-03T01:36:54;2.20;;;1.90;;
15256;SDS011;7731;50.720;6.912;2023-04-03T01:39:25;4.43;;;2.10;;
15256;SDS011;7731;50.720;6.912;2023-04-03T01:41:55;2.93;;;2.20;;
15256;SDS011;7731;50.720;6.912;2023-04-03T01:44:26;2.73;;;1.90;;
15256;SDS011;7731;50.720;6.912;2023-04-03T01:46:58;2.30;;;1.80;;
15256;SDS011;7731;50.720;6.912;2023-04-03T01:49:29;3.37;;;2.00;;
15256;SDS011;7731;50.720;6.912;2023-04-03T01:51:59;4.20;;;2.07;;
15256;SDS011;7731;50.720;6.912;2023-04-03T01:54:29;3.80;;;2.17;;
15256;SDS011;7731;50.720;6.912;2023-04-03T01:56:59;4.20;;;2.23;;
15256;SDS011;7731;50.720;6.912;2023-04-03T01:59:30;2.23;;;1.83;;
15256;SDS011;7731;50.720;6.912;2023-04-03T02:02:03;3.97;;;2.37;;
15256;SDS011;7731;50.720;6.912;2023-04-03T02:04:35;4.13;;;2.57;;
15256;SDS011;7731;50.720;6.912;2023-04-03T02:07:05;3.20;;;2.50;;
15256;SDS011;7731;50.720;6.912;2023-04-03T02:09:36;4.10;;;2.33;;
15256;SDS011;7731;50.720;6.912;2023-04-03T02:12:06;5.10;;;2.40;;
15256;SDS011;7731;50.720;6.912;2023-04-03T02:14:37;2.50;;;2.30;;
15256;SDS011;7731;50.720;6.912;2023-04-03T02:17:09;4.03;;;2.37;;
15256;SDS011;7731;50.720;6.912;2023-04-03T02:19:40;2.57;;;1.90;;
15256;SDS011;7731;50.720;6.912;2023-04-03T02:22:13;2.30;;;1.97;;
15256;SDS011;7731;50.720;6.912;2023-04-03T02:24:43;3.20;;;2.10;;
15256;SDS011;7731;50.720;6.912;2023-04-03T02:27:13;2.37;;;2.00;;
15256;SDS011;7731;50.720;6.912;2023-04-03T02:29:44;3.33;;;2.30;;
15256;SDS011;7731;50.720;6.912;2023-04-03T02:32:16;5.57;;;2.47;;
15256;SDS011;7731;50.720;6.912;2023-04-03T02:34:47;4.40;;;2.33;;
15256;SDS011;7731;50.720;6.912;2023-04-03T02:37:17;4.70;;;2.57;;
15256;SDS011;7731;50.720;6.912;2023-04-03T02:39:47;3.03;;;1.90;;
15256;SDS011;7731;50.720;6.912;2023-04-03T02:42:18;3.17;;;2.37;;
15256;SDS011;7731;50.720;6.912;2023-04-03T02:44:48;4.83;;;1.80;;
15256;SDS011;7731;50.720;6.912;2023-04-03T02:47:21;3.60;;;2.00;;
15256;SDS011;7731;50.720;6.912;2023-04-03T02:49:51;2.47;;;2.20;;
15256;SDS011;7731;50.720;6.912;2023-04-03T02:52:21;3.87;;;2.57;;
15256;SDS011;7731;50.720;6.912;2023-04-03T02:54:55;3.73;;;2.40;;
15256;SDS011;7731;50.720;6.912;2023-04-03T02:57:27;2.33;;;2.10;;
15256;SDS011;7731;50.720;6.912;2023-04-03T02:59:57;4.30;;;3.67;;
15256;SDS011;7731;50.720;6.912;2023-04-03T03:02:30;4.67;;;2.60;;
15256;SDS011;7731;50.720;6.912;2023-04-03T03:05:00;5.57;;;2.27;;
15256;SDS011;7731;50.720;6.912;2023-04-03T03:07:32;3.90;;;2.60;;
15256;SDS011;7731;50.720;6.912;2023-04-03T03:10:02;6.27;;;2.60;;
15256;SDS011;7731;50.720;6.912;2023-04-03T03:12:34;3.97;;;2.50;;
15256;SDS011;7731;50.720;6.912;2023-04-03T03:15:04;3.77;;;2.60;;
15256;SDS011;7731;50.720;6.912;2023-04-03T03:17:40;3.13;;;2.00;;
15256;SDS011;7731;50.720;6.912;2023-04-03T03:20:11;5.40;;;2.63;;
15256;SDS011;7731;50.720;6.912;2023-04-03T03:22:43;2.83;;;2.30;;
15256;SDS011;7731;50.720;6.912;2023-04-03T03:25:13;3.40;;;2.07;;
15256;SDS011;7731;50.720;6.912;2023-04-03T03:27:44;3.43;;;2.50;;
15256;SDS011;7731;50.720;6.912;2023-04-03T03:30:15;3.50;;;2.40;;
15256;SDS011;7731;50.720;6.912;2023-04-03T03:32:47;3.80;;;2.57;;
15256;SDS011;7731;50.720;6.912;2023-04-03T03:35:20;3.73;;;2.33;;
15256;SDS011;7731;50.720;6.912;2023-04-03T03:37:52;3.27;;;2.70;;
15256;SDS011;7731;50.720;6.912;2023-04-03T03:40:36;3.10;;;2.33;;
15256;SDS011;7731;50.720;6.912;2023-04-03T03:43:06;6.27;;;2.70;;
15256;SDS011;7731;50.720;6.912;2023-04-03T03:45:36;3.40;;;2.83;;
15256;SDS011;7731;50.720;6.912;2023-04-03T03:48:09;5.17;;;2.63;;
15256;SDS011;7731;50.720;6.912;2023-04-03T03:50:39;2.67;;;2.00;;
15256;SDS011;7731;50.720;6.912;2023-04-03T03:53:10;2.93;;;2.20;;
15256;SDS011;7731;50.720;6.912;2023-04-03T03:55:40;2.37;;;2.17;;
15256;SDS011;7731;50.720;6.912;2023-04-03T03:58:11;4.87;;;2.50;;
15256;SDS011;7731;50.720;6.912;2023-04-03T04:00:41;4.27;;;2.43;;
15256;SDS011;7731;50.720;6.912;2023-04-03T04:03:14;4.50;;;2.40;;
15256;SDS011;7731;50.720;6.912;2023-04-03T04:05:44;2.10;;;1.90;;
15256;SDS011;7731;50.720;6.912;2023-04-03T04:08:16;2.73;;;1.97;;
15256;SDS011;7731;50.720;6.912;2023-04-03T04:10:46;3.83;;;2.00;;
15256;SDS011;7731;50.720;6.912;2023-04-03T04:13:16;3.13;;;1.90;;
15256;SDS011;7731;50.720;6.912;2023-04-03T04:15:47;3.83;;;2.20;;
15256;SDS011;7731;50.720;6.912;2023-04-03T04:18:19;3.40;;;2.40;;
15256;SDS011;7731;50.720;6.912;2023-04-03T04:20:50;3.13;;;2.40;;
15256;SDS011;7731;50.720;6.912;2023-04-03T04:23:21;6.73;;;2.50;;
15256;SDS011;7731;50.720;6.912;2023-04-03T04:25:53;4.60;;;2.40;;
15256;SDS011;7731;50.720;6.912;2023-04-03T04:28:24;3.37;;;2.50;;
15256;SDS011;7731;50.720;6.912;2023-04-03T04:30:54;3.67;;;2.50;;
15256;SDS011;7731;50.720;6.912;2023-04-03T04:33:27;3.30;;;2.63;;
15256;SDS011;7731;50.720;6.912;2023-04-03T04:35:57;3.87;;;2.70;;
15256;SDS011;7731;50.720;6.912;2023-04-03T04:38:27;4.00;;;2.50;;
15256;SDS011;7731;50.720;6.912;2023-04-03T04:40:58;3.97;;;2.73;;
15256;SDS011;7731;50.720;6.912;2023-04-03T04:43:29;3.93;;;2.37;;
15256;SDS011;7731;50.720;6.912;2023-04-03T04:46:00;3.23;;;2.60;;
15256;SDS011;7731;50.720;6.912;2023-04-03T04:48:36;69.50;;;40.43;;
15256;SDS011;7731;50.720;6.912;2023-04-03T04:51:07;35.10;;;28.23;;
15256;SDS011;7731;50.720;6.912;2023-04-03T04:53:37;30.43;;;25.63;;
15256;SDS011;7731;50.720;6.912;2023-04-03T04:56:07;18.13;;;12.97;;
15256;SDS011;7731;50.720;6.912;2023-04-03T04:58:38;39.00;;;22.10;;
15256;SDS011;7731;50.720;6.912;2023-04-03T05:01:09;38.27;;;19.17;;
15256;SDS011;7731;50.720;6.912;2023-04-03T05:03:48;34.20;;;16.53;;
15256;SDS011;7731;50.720;6.912;2023-04-03T05:06:21;16.63;;;8.30;;
15256;SDS011;7731;50.720;6.912;2023-04-03T05:08:54;7.70;;;3.60;;
15256;SDS011;7731;50.720;6.912;2023-04-03T05:11:24;5.07;;;2.93;;
15256;SDS011;7731;50.720;6.912;2023-04-03T05:13:54;4.13;;;2.90;;
15256;SDS011;7731;50.720;6.912;2023-04-03T05:16:25;4.83;;;3.73;;
15256;SDS011;7731;50.720;6.912;2023-04-03T05:18:58;6.27;;;5.70;;
15256;SDS011;7731;50.720;6.912;2023-04-03T05:21:28;6.57;;;4.80;;
15256;SDS011;7731;50.720;6.912;2023-04-03T05:24:00;6.97;;;5.63;;
15256;SDS011;7731;50.720;6.912;2023-04-03T05:26:31;5.03;;;2.70;;
15256;SDS011;7731;50.720;6.912;2023-04-03T05:29:01;4.10;;;2.63;;
15256;SDS011;7731;50.720;6.912;2023-04-03T05:31:34;2.43;;;2.03;;
15256;SDS011;7731;50.720;6.912;2023-04-03T05:34:09;6.80;;;3.77;;
15256;SDS011;7731;50.720;6.912;2023-04-03T05:36:41;4.80;;;2.53;;
15256;SDS011;7731;50.720;6.912;2023-04-03T05:39:12;6.07;;;2.93;;
15256;SDS011;7731;50.720;6.912;2023-04-03T05:41:42;3.60;;;2.43;;
15256;SDS011;7731;50.720;6.912;2023-04-03T05:44:15;4.07;;;2.87;;
15256;SDS011;7731;50.720;6.912;2023-04-03T05:46:46;4.03;;;2.93;;
15256;SDS011;7731;50.720;6.912;2023-04-03T05:49:19;5.27;;;2.50;;
15256;SDS011;7731;50.720;6.912;2023-04-03T05:51:49;3.77;;;2.63;;
15256;SDS011;7731;50.720;6.912;2023-04-03T05:54:22;4.03;;;2.00;;
15256;SDS011;7731;50.720;6.912;2023-04-03T05:56:55;3.07;;;2.30;;
15256;SDS011;7731;50.720;6.912;2023-04-03T05:59:25;3.30;;;2.30;;
15256;SDS011;7731;50.720;6.912;2023-04-03T06:01:56;4.57;;;3.90;;
15256;SDS011;7731;50.720;6.912;2023-04-03T06:04:30;3.73;;;2.23;;
15256;SDS011;7731;50.720;6.912;2023-04-03T06:07:00;5.53;;;3.20;;
15256;SDS011;7731;50.720;6.912;2023-04-03T06:09:30;4.70;;;2.33;;
15256;SDS011;7731;50.720;6.912;2023-04-03T06:12:01;4.37;;;2.43;;
15256;SDS011;7731;50.720;6.912;2023-04-03T06:14:32;5.80;;;2.93;;
15256;SDS011;7731;50.720;6.912;2023-04-03T06:17:02;4.57;;;2.17;;
15256;SDS011;7731;50.720;6.912;2023-04-03T06:19:37;3.73;;;2.37;;
15256;SDS011;7731;50.720;6.912;2023-04-03T06:22:08;3.93;;;2.00;;
15256;SDS011;7731;50.720;6.912;2023-04-03T06:24:38;6.93;;;2.20;;
15256;SDS011;7731;50.720;6.912;2023-04-03T06:27:10;3.60;;;1.77;;
15256;SDS011;7731;50.720;6.912;2023-04-03T06:29:41;5.23;;;2.00;;
15256;SDS011;7731;50.720;6.912;2023-04-03T06:32:12;4.20;;;1.87;;
15256;SDS011;7731;50.720;6.912;2023-04-03T06:34:45;4.33;;;2.10;;
15256;SDS011;7731;50.720;6.912;2023-04-03T06:37:15;4.60;;;2.20;;
15256;SDS011;7731;50.720;6.912;2023-04-03T06:39:48;3.67;;;2.17;;
15256;SDS011;7731;50.720;6.912;2023-04-03T06:42:18;3.93;;;2.00;;
15256;SDS011;7731;50.720;6.912;2023-04-03T06:44:48;4.07;;;1.87;;
15256;SDS011;7731;50.720;6.912;2023-04-03T06:47:18;6.67;;;1.97;;
15256;SDS011;7731;50.720;6.912;2023-04-03T06:49:51;5.00;;;2.60;;
15256;SDS011;7731;50.720;6.912;2023-04-03T06:52:22;2.80;;;1.70;;
15256;SDS011;7731;50.720;6.912;2023-04-03T06:54:53;3.37;;;1.67;;
15256;SDS011;7731;50.720;6.912;2023-04-03T06:57:26;5.20;;;2.13;;
15256;SDS011;7731;50.720;6.912;2023-04-03T06:59:56;5.47;;;1.67;;
15256;SDS011;7731;50.720;6.912;2023-04-03T07:02:26;3.63;;;1.80;;
15256;SDS011;7731;50.720;6.912;2023-04-03T07:04:59;3.77;;;1.60;;
15256;SDS011;7731;50.720;6.912;2023-04-03T07:07:29;3.57;;;1.60;;
15256;SDS011;7731;50.720;6.912;2023-04-03T07:10:00;6.60;;;2.13;;
15256;SDS011;7731;50.720;6.912;2023-04-03T07:12:31;4.93;;;1.77;;
15256;SDS011;7731;50.720;6.912;2023-04-03T07:15:01;4.97;;;1.90;;
15256;SDS011;7731;50.720;6.912;2023-04-03T07:17:32;1.90;;;1.43;;
15256;SDS011;7731;50.720;6.912;2023-04-03T07:20:06;3.07;;;1.80;;
15256;SDS011;7731;50.720;6.912;2023-04-03T07:22:38;3.27;;;1.67;;
15256;SDS011;7731;50.720;6.912;2023-04-03T07:25:08;4.13;;;1.87;;
15256;SDS011;7731;50.720;6.912;2023-04-03T07:27:38;3.63;;;1.47;;
15256;SDS011;7731;50.720;6.912;2023-04-03T07:30:10;3.92;;;1.63;;
15256;SDS011;7731;50.720;6.912;2023-04-03T07:32:42;2.97;;;1.58;;
15256;SDS011;7731;50.720;6.912;2023-04-03T07:35:15;3.70;;;1.55;;
15256;SDS011;7731;50.720;6.912;2023-04-03T07:37:45;3.88;;;1.83;;
15256;SDS011;7731;50.720;6.912;2023-04-03T07:40:16;7.80;;;2.35;;
15256;SDS011;7731;50.720;6.912;2023-04-03T07:42:46;4.00;;;1.92;;
15256;SDS011;7731;50.720;6.912;2023-04-03T07:45:17;4.13;;;1.60;;
15256;SDS011;7731;50.720;6.912;2023-04-03T07:47:49;2.92;;;1.60;;
15256;SDS011;7731;50.720;6.912;2023-04-03T07:50:22;4.55;;;2.30;;
15256;SDS011;7731;50.720;6.912;2023-04-03T07:52:53;6.05;;;2.40;;
15256;SDS011;7731;50.720;6.912;2023-04-03T07:55:24;3.28;;;2.00;;
15256;SDS011;7731;50.720;6.912;2023-04-03T07:57:55;9.13;;;2.40;;
15256;SDS011;7731;50.720;6.912;2023-04-03T08:00:25;3.55;;;1.80;;
15256;SDS011;7731;50.720;6.912;2023-04-03T08:02:56;3.78;;;1.58;;
15256;SDS011;7731;50.720;6.912;2023-04-03T08:05:29;3.13;;;1.88;;
15256;SDS011;7731;50.720;6.912;2023-04-03T08:07:59;2.60;;;1.77;;
15256;SDS011;7731;50.720;6.912;2023-04-03T08:10:29;3.58;;;2.03;;
15256;SDS011;7731;50.720;6.912;2023-04-03T08:13:00;4.07;;;1.80;;
15256;SDS011;7731;50.720;6.912;2023-04-03T08:15:32;3.30;;;1.95;;
15256;SDS011;7731;50.720;6.912;2023-04-03T08:18:03;4.60;;;1.70;;
15256;SDS011;7731;50.720;6.912;2023-04-03T08:20:37;4.13;;;1.92;;
15256;SDS011;7731;50.720;6.912;2023-04-03T08:23:08;4.22;;;1.63;;
15256;SDS011;7731;50.720;6.912;2023-04-03T08:25:40;3.10;;;1.70;;
15256;SDS011;7731;50.720;6.912;2023-04-03T08:28:11;4.65;;;1.70;;
15256;SDS011;7731;50.720;6.912;2023-04-03T08:30:42;2.72;;;1.80;;
15256;SDS011;7731;50.720;6.912;2023-04-03T08:33:12;2.95;;;1.90;;
15256;SDS011;7731;50.720;6.912;2023-04-03T08:35:45;4.10;;;2.00;;
15256;SDS011;7731;50.720;6.912;2023-04-03T08:38:16;3.15;;;1.65;;
15256;SDS011;7731;50.720;6.912;2023-04-03T08:40:46;2.38;;;1.55;;
15256;SDS011;7731;50.720;6.912;2023-04-03T08:43:22;3.95;;;1.95;;
15256;SDS011;7731;50.720;6.912;2023-04-03T08:46:06;6.30;;;1.55;;
15256;SDS011;7731;50.720;6.912;2023-04-03T08:48:43;3.55;;;1.70;;
15256;SDS011;7731;50.720;6.912;2023-04-03T08:51:17;3.97;;;1.48;;
15256;SDS011;7731;50.720;6.912;2023-04-03T08:53:54;4.32;;;1.60;;
15256;SDS011;7731;50.720;6.912;2023-04-03T08:56:31;2.30;;;1.45;;
15256;SDS011;7731;50.720;6.912;2023-04-03T08:59:05;3.70;;;1.60;;
15256;SDS011;7731;50.720;6.912;2023-04-03T09:01:43;4.20;;;1.58;;
15256;SDS011;7731;50.720;6.912;2023-04-03T09:04:15;3.85;;;1.58;;
15256;SDS011;7731;50.720;6.912;2023-04-03T09:06:49;2.60;;;1.80;;
15256;SDS011;7731;50.720;6.912;2023-04-03T09:09:30;2.95;;;1.50;;
15256;SDS011;7731;50.720;6.912;2023-04-03T09:12:11;3.88;;;1.80;;
15256;SDS011;7731;50.720;6.912;2023-04-03T09:14:53;5.78;;;1.88;;
15256;SDS011;7731;50.720;6.912;2023-04-03T09:17:41;2.58;;;1.30;;
15256;SDS011;7731;50.720;6.912;2023-04-03T09:20:27;3.67;;;1.80;;
15256;SDS011;7731;50.720;6.912;2023-04-03T09:23:17;3.30;;;1.40;;
15256;SDS011;7731;50.720;6.912;2023-04-03T09:25:58;2.75;;;1.83;;
15256;SDS011;7731;50.720;6.912;2023-04-03T09:28:35;5.32;;;2.20;;
15256;SDS011;7731;50.720;6.912;2023-04-03T09:31:20;3.58;;;1.65;;
15256;SDS011;7731;50.720;6.912;2023-04-03T09:33:54;3.45;;;2.17;;
15256;SDS011;7731;50.720;6.912;2023-04-03T09:36:44;3.53;;;1.58;;
15256;SDS011;7731;50.720;6.912;2023-04-03T09:39:22;3.50;;;2.03;;
15256;SDS011;7731;50.720;6.912;2023-04-03T09:41:58;5.40;;;1.98;;
15256;SDS011;7731;50.720;6.912;2023-04-03T09:44:32;4.03;;;1.70;;
15256;SDS011;7731;50.720;6.912;2023-04-03T09:47:17;2.70;;;1.70;;
15256;SDS011;7731;50.720;6.912;2023-04-03T09:50:08;5.30;;;1.70;;
15256;SDS011;7731;50.720;6.912;2023-04-03T09:52:50;4.13;;;1.95;;
15256;SDS011;7731;50.720;6.912;2023-04-03T09:55:24;4.78;;;1.90;;
15256;SDS011;7731;50.720;6.912;2023-04-03T09:57:57;3.05;;;1.67;;
15256;SDS011;7731;50.720;6.912;2023-04-03T10:00:35;2.90;;;1.33;;
15256;SDS011;7731;50.720;6.912;2023-04-03T10:03:21;2.72;;;1.80;;
15256;SDS011;7731;50.720;6.912;2023-04-03T10:06:00;3.42;;;1.88;;
15256;SDS011;7731;50.720;6.912;2023-04-03T10:08:34;2.65;;;1.70;;
15256;SDS011;7731;50.720;6.912;2023-04-03T10:11:10;2.78;;;1.42;;
15256;SDS011;7731;50.720;6.912;2023-04-03T10:13:55;2.97;;;1.42;;
15256;SDS011;7731;50.720;6.912;2023-04-03T10:16:29;3.38;;;1.48;;
15256;SDS011;7731;50.720;6.912;2023-04-03T10:19:17;3.83;;;1.70;;
15256;SDS011;7731;50.720;6.912;2023-04-03T10:22:15;2.63;;;1.38;;
15256;SDS011;7731;50.720;6.912;2023-04-03T10:24:56;3.80;;;1.90;;
15256;SDS011;7731;50.720;6.912;2023-04-03T10:27:44;4.65;;;1.83;;
15256;SDS011;7731;50.720;6.912;2023-04-03T10:30:31;2.80;;;1.67;;
15256;SDS011;7731;50.720;6.912;2023-04-03T10:33:18;3.35;;;1.55;;
15256;SDS011;7731;50.720;6.912;2023-04-03T10:36:10;3.85;;;1.58;;
15256;SDS011;7731;50.720;6.912;2023-04-03T10:38:55;4.25;;;1.60;;
15256;SDS011;7731;50.720;6.912;2023-04-03T10:41:41;3.60;;;1.45;;
15256;SDS011;7731;50.720;6.912;2023-04-03T10:44:47;2.70;;;1.70;;
15256;SDS011;7731;50.720;6.912;2023-04-03T10:47:46;3.25;;;1.45;;
15256;SDS011;7731;50.720;6.912;2023-04-03T10:50:31;3.17;;;1.48;;
15256;SDS011;7731;50.720;6.912;2023-04-03T10:53:24;3.25;;;1.48;;
15256;SDS011;7731;50.720;6.912;2023-04-03T10:56:05;4.13;;;1.77;;
15256;SDS011;7731;50.720;6.912;2023-04-03T10:58:47;3.60;;;1.75;;
15256;SDS011;7731;50.720;6.912;2023-04-03T11:01:29;4.18;;;1.38;;
15256;SDS011;7731;50.720;6.912;2023-04-03T11:04:06;1.90;;;1.30;;
15256;SDS011;7731;50.720;6.912;2023-04-03T11:06:40;2.50;;;1.17;;
15256;SDS011;7731;50.720;6.912;2023-04-03T11:09:19;1.70;;;1.23;;
15256;SDS011;7731;50.720;6.912;2023-04-03T11:12:06;3.03;;;1.52;;
15256;SDS011;7731;50.720;6.912;2023-04-03T11:14:46;2.60;;;1.40;;
15256;SDS011;7731;50.720;6.912;2023-04-03T11:17:25;2.45;;;1.38;;
15256;SDS011;7731;50.720;6.912;2023-04-03T11:20:04;3.15;;;1.10;;
15256;SDS011;7731;50.720;6.912;2023-04-03T11:22:45;3.25;;;1.60;;
15256;SDS011;7731;50.720;6.912;2023-04-03T11:25:23;3.22;;;1.15;;
15256;SDS011;7731;50.720;6.912;2023-04-03T11:27:57;1.40;;;1.10;;
15256;SDS011;7731;50.720;6.912;2023-04-03T11:30:31;2.45;;;1.02;;
15256;SDS011;7731;50.720;6.912;2023-04-03T11:36:18;2.40;;;1.17;;
15256;SDS011;7731;50.720;6.912;2023-04-03T11:39:01;2.45;;;1.20;;
15256;SDS011;7731;50.720;6.912;2023-04-03T11:41:53;1.25;;;0.85;;
15256;SDS011;7731;50.720;6.912;2023-04-03T11:44:38;2.22;;;1.08;;
15256;SDS011;7731;50.720;6.912;2023-04-03T11:47:12;1.48;;;0.90;;
15256;SDS011;7731;50.720;6.912;2023-04-03T11:53:33;2.28;;;1.10;;
15256;SDS011;7731;50.720;6.912;2023-04-03T12:01:55;2.95;;;1.20;;
15256;SDS011;7731;50.720;6.912;2023-04-03T12:04:30;4.25;;;1.30;;
15256;SDS011;7731;50.720;6.912;2023-04-03T12:09:58;2.97;;;1.20;;
15256;SDS011;7731;50.720;6.912;2023-04-03T12:12:34;2.85;;;1.35;;
15256;SDS011;7731;50.720;6.912;2023-04-03T12:21:15;2.78;;;1.20;;
15256;SDS011;7731;50.720;6.912;2023-04-03T12:23:58;1.73;;;1.10;;
15256;SDS011;7731;50.720;6.912;2023-04-03T12:26:36;3.22;;;1.20;;
15256;SDS011;7731;50.720;6.912;2023-04-03T12:29:15;2.28;;;1.00;;
15256;SDS011;7731;50.720;6.912;2023-04-03T12:31:55;1.73;;;1.25;;
15256;SDS011;7731;50.720;6.912;2023-04-03T12:34:46;2.70;;;1.00;;
15256;SDS011;7731;50.720;6.912;2023-04-03T12:41:15;2.40;;;1.23;;
15256;SDS011;7731;50.720;6.912;2023-04-03T12:44:00;1.70;;;0.98;;
15256;SDS011;7731;50.720;6.912;2023-04-03T12:46:57;3.50;;;2.78;;
15256;SDS011;7731;50.720;6.912;2023-04-03T12:49:38;5.03;;;2.47;;
15256;SDS011;7731;50.720;6.912;2023-04-03T12:52:17;2.45;;;1.20;;
15256;SDS011;7731;50.720;6.912;2023-04-03T12:55:02;1.20;;;0.95;;
15256;SDS011;7731;50.720;6.912;2023-04-03T12:57:46;3.58;;;1.02;;
15256;SDS011;7731;50.720;6.912;2023-04-03T13:00:21;1.55;;;0.90;;
15256;SDS011;7731;50.720;6.912;2023-04-03T13:03:00;1.70;;;1.00;;
15256;SDS011;7731;50.720;6.912;2023-04-03T13:05:33;15.35;;;8.45;;
15256;SDS011;7731;50.720;6.912;2023-04-03T13:08:05;2.45;;;1.20;;
15256;SDS011;7731;50.720;6.912;2023-04-03T13:10:53;3.75;;;1.52;;
15256;SDS011;7731;50.720;6.912;2023-04-03T13:13:33;4.60;;;2.42;;
15256;SDS011;7731;50.720;6.912;2023-04-03T13:16:07;8.75;;;4.55;;
15256;SDS011;7731;50.720;6.912;2023-04-03T13:18:40;5.00;;;1.90;;
15256;SDS011;7731;50.720;6.912;2023-04-03T13:21:11;2.42;;;1.50;;
15256;SDS011;7731;50.720;6.912;2023-04-03T13:23:51;1.42;;;0.93;;
15256;SDS011;7731;50.720;6.912;2023-04-03T13:26:43;1.25;;;0.80;;
15256;SDS011;7731;50.720;6.912;2023-04-03T13:29:19;2.55;;;1.20;;
15256;SDS011;7731;50.720;6.912;2023-04-03T13:31:57;0.98;;;0.80;;
15256;SDS011;7731;50.720;6.912;2023-04-03T13:34:35;1.92;;;1.15;;
15256;SDS011;7731;50.720;6.912;2023-04-03T13:37:19;3.28;;;1.40;;
15256;SDS011;7731;50.720;6.912;2023-04-03T13:39:57;2.75;;;1.45;;
15256;SDS011;7731;50.720;6.912;2023-04-03T13:42:34;3.40;;;1.30;;
15256;SDS011;7731;50.720;6.912;2023-04-03T13:48:08;1.90;;;1.10;;
15256;SDS011;7731;50.720;6.912;2023-04-03T13:50:51;2.53;;;1.60;;
15256;SDS011;7731;50.720;6.912;2023-04-03T13:53:33;3.08;;;1.60;;
15256;SDS011;7731;50.720;6.912;2023-04-03T13:56:16;2.33;;;1.45;;
15256;SDS011;7731;50.720;6.912;2023-04-03T13:59:20;6.22;;;3.42;;
15256;SDS011;7731;50.720;6.912;2023-04-03T14:02:09;3.92;;;2.30;;
15256;SDS011;7731;50.720;6.912;2023-04-03T14:05:00;9.73;;;5.00;;
15256;SDS011;7731;50.720;6.912;2023-04-03T14:07:34;15.40;;;9.68;;
15256;SDS011;7731;50.720;6.912;2023-04-03T14:10:07;7.38;;;5.18;;
15256;SDS011;7731;50.720;6.912;2023-04-03T14:12:38;2.33;;;1.60;;
15256;SDS011;7731;50.720;6.912;2023-04-03T14:15:16;2.58;;;1.85;;
15256;SDS011;7731;50.720;6.912;2023-04-03T14:17:51;2.47;;;1.33;;
15256;SDS011;7731;50.720;6.912;2023-04-03T14:20:22;2.88;;;1.55;;
15256;SDS011;7731;50.720;6.912;2023-04-03T14:22:55;17.63;;;4.18;;
15256;SDS011;7731;50.720;6.912;2023-04-03T14:25:26;1.88;;;1.58;;
15256;SDS011;7731;50.720;6.912;2023-04-03T14:27:57;3.92;;;1.50;;
15256;SDS011;7731;50.720;6.912;2023-04-03T14:30:30;3.38;;;1.27;;
15256;SDS011;7731;50.720;6.912;2023-04-03T14:33:03;2.38;;;1.40;;
15256;SDS011;7731;50.720;6.912;2023-04-03T14:35:36;1.88;;;1.63;;
15256;SDS011;7731;50.720;6.912;2023-04-03T14:38:10;2.70;;;1.55;;
15256;SDS011;7731;50.720;6.912;2023-04-03T14:40:52;1.58;;;1.25;;
15256;SDS011;7731;50.720;6.912;2023-04-03T14:43:39;2.45;;;1.30;;
15256;SDS011;7731;50.720;6.912;2023-04-03T14:46:15;1.73;;;1.35;;
15256;SDS011;7731;50.720;6.912;2023-04-03T14:48:52;1.77;;;1.20;;
15256;SDS011;7731;50.720;6.912;2023-04-03T14:51:23;2.08;;;1.35;;
15256;SDS011;7731;50.720;6.912;2023-04-03T14:53:54;1.88;;;1.30;;
15256;SDS011;7731;50.720;6.912;2023-04-03T14:56:25;3.03;;;1.17;;
15256;SDS011;7731;50.720;6.912;2023-04-03T14:58:59;1.65;;;1.10;;
15256;SDS011;7731;50.720;6.912;2023-04-03T15:01:33;2.72;;;1.48;;
15256;SDS011;7731;50.720;6.912;2023-04-03T15:04:05;3.67;;;1.27;;
15256;SDS011;7731;50.720;6.912;2023-04-03T15:06:41;1.75;;;1.10;;
15256;SDS011;7731;50.720;6.912;2023-04-03T15:09:15;2.42;;;1.10;;
15256;SDS011;7731;50.720;6.912;2023-04-03T15:11:53;2.13;;;1.25;;
15256;SDS011;7731;50.720;6.912;2023-04-03T15:14:24;3.05;;;1.27;;
15256;SDS011;7731;50.720;6.912;2023-04-03T15:17:12;6.15;;;4.00;;
15256;SDS011;7731;50.720;6.912;2023-04-03T15:19:48;3.28;;;1.38;;
15256;SDS011;7731;50.720;6.912;2023-04-03T15:22:19;4.45;;;2.95;;
15256;SDS011;7731;50.720;6.912;2023-04-03T15:24:49;4.35;;;2.08;;
15256;SDS011;7731;50.720;6.912;2023-04-03T15:27:21;5.43;;;2.60;;
15256;SDS011;7731;50.720;6.912;2023-04-03T15:29:51;3.35;;;1.50;;
15256;SDS011;7731;50.720;6.912;2023-04-03T15:32:24;3.60;;;1.58;;
15256;SDS011;7731;50.720;6.912;2023-04-03T15:34:58;2.45;;;1.20;;
15256;SDS011;7731;50.720;6.912;2023-04-03T15:37:33;2.08;;;1.20;;
15256;SDS011;7731;50.720;6.912;2023-04-03T15:40:04;2.85;;;1.23;;
15256;SDS011;7731;50.720;6.912;2023-04-03T15:42:37;1.50;;;1.10;;
15256;SDS011;7731;50.720;6.912;2023-04-03T15:45:11;2.65;;;1.27;;
15256;SDS011;7731;50.720;6.912;2023-04-03T15:47:44;2.03;;;0.98;;
15256;SDS011;7731;50.720;6.912;2023-04-03T15:50:15;3.10;;;1.42;;
15256;SDS011;7731;50.720;6.912;2023-04-03T15:52:45;3.47;;;1.30;;
15256;SDS011;7731;50.720;6.912;2023-04-03T15:55:20;1.67;;;1.20;;
15256;SDS011;7731;50.720;6.912;2023-04-03T15:57:51;4.63;;;1.35;;
15256;SDS011;7731;50.720;6.912;2023-04-03T16:00:22;2.65;;;1.30;;
15256;SDS011;7731;50.720;6.912;2023-04-03T16:02:57;3.85;;;1.30;;
15256;SDS011;7731;50.720;6.912;2023-04-03T16:05:39;4.55;;;1.20;;
15256;SDS011;7731;50.720;6.912;2023-04-03T16:08:09;2.42;;;1.45;;
15256;SDS011;7731;50.720;6.912;2023-04-03T16:10:50;2.72;;;1.15;;
15256;SDS011;7731;50.720;6.912;2023-04-03T16:13:37;2.78;;;2.25;;
15256;SDS011;7731;50.720;6.912;2023-04-03T16:16:08;1.67;;;1.02;;
15256;SDS011;7731;50.720;6.912;2023-04-03T16:18:44;4.93;;;4.53;;